createdAt,value
2023-05-14T00:00:34.946Z,470.6154
2023-05-14T00:01:36.789Z,466.0000
2023-05-14T00:02:38.716Z,467.2308
2023-05-14T00:03:40.539Z,471.0000
2023-05-14T00:04:42.294Z,475.7692
2023-05-14T00:05:44.168Z,474.6154
2023-05-14T00:06:45.980Z,474.9231
2023-05-14T00:07:47.823Z,477.0769
2023-05-14T00:08:49.662Z,477.8462
2023-05-14T00:09:51.494Z,475.9231
2023-05-14T00:10:53.361Z,475.0769
2023-05-14T00:11:55.187Z,476.1538
2023-05-14T00:12:57.035Z,473.2308
2023-05-14T00:13:58.897Z,457.0769
2023-05-14T00:15:00.695Z,461.3077
2023-05-14T00:16:02.578Z,440.2308
2023-05-14T00:17:04.402Z,461.4615
2023-05-14T00:18:06.326Z,448.3846
2023-05-14T00:19:08.082Z,468.9231
2023-05-14T00:20:09.935Z,477.0769
2023-05-14T00:21:11.764Z,477.9231
2023-05-14T00:22:13.593Z,477.5385
2023-05-14T00:23:15.434Z,477.1538
2023-05-14T00:24:17.269Z,476.0000
2023-05-14T00:25:19.105Z,475.6154
2023-05-14T00:26:20.988Z,475.0769
2023-05-14T00:27:22.807Z,475.8462
2023-05-14T00:28:24.637Z,477.8462
2023-05-14T00:29:26.478Z,477.1538
2023-05-14T00:30:28.310Z,472.9231
2023-05-14T00:31:30.165Z,464.6923
2023-05-14T00:32:32.033Z,451.3846
2023-05-14T00:33:33.841Z,461.4615
2023-05-14T00:34:35.687Z,432.3846
2023-05-14T00:35:37.509Z,455.3077
2023-05-14T00:36:39.392Z,458.0769
2023-05-14T00:37:41.196Z,472.6923
2023-05-14T00:38:43.051Z,475.7692
2023-05-14T00:39:44.887Z,474.3077
2023-05-14T00:40:46.712Z,474.2308
2023-05-14T00:41:48.563Z,476.1538
2023-05-14T00:42:50.416Z,476.1538
2023-05-14T00:43:52.244Z,475.6923
2023-05-14T00:44:54.119Z,475.2308
2023-05-14T00:45:55.948Z,474.8462
2023-05-14T00:46:57.804Z,473.2308
2023-05-14T00:47:59.721Z,473.3077
2023-05-14T00:49:01.437Z,464.3846
2023-05-14T00:50:03.273Z,473.6923
2023-05-14T00:51:05.159Z,434.0769
2023-05-14T00:52:06.970Z,458.1538
2023-05-14T00:53:08.817Z,457.2308
2023-05-14T00:54:10.638Z,467.9231
2023-05-14T00:55:12.482Z,471.0769
2023-05-14T00:56:14.322Z,473.3846
2023-05-14T00:57:16.193Z,473.7692
2023-05-14T00:58:18.052Z,474.6923
2023-05-14T00:59:19.864Z,475.3077
2023-05-14T01:00:21.867Z,477.8462
2023-05-14T01:01:23.547Z,479.0769
2023-05-14T01:02:25.457Z,476.3077
2023-05-14T01:03:27.405Z,477.5385
2023-05-14T01:04:29.062Z,478.5385
2023-05-14T01:05:30.868Z,477.0000
2023-05-14T01:06:32.707Z,472.4615
2023-05-14T01:07:34.548Z,446.1538
2023-05-14T01:08:36.399Z,462.7692
2023-05-14T01:09:38.251Z,454.2308
2023-05-14T01:10:40.086Z,463.6923
2023-05-14T01:11:41.908Z,465.8462
2023-05-14T01:12:43.754Z,470.7692
2023-05-14T01:13:45.597Z,472.0000
2023-05-14T01:14:47.453Z,473.9231
2023-05-14T01:15:49.302Z,476.0769
2023-05-14T01:16:51.170Z,476.1538
2023-05-14T01:17:52.970Z,477.4615
2023-05-14T01:18:54.897Z,476.3077
2023-05-14T01:19:56.635Z,475.9231
2023-05-14T01:20:58.529Z,474.3846
2023-05-14T01:22:00.335Z,474.1538
2023-05-14T01:23:02.142Z,474.5385
2023-05-14T01:24:04.017Z,466.4615
2023-05-14T01:25:05.837Z,458.4615
2023-05-14T01:26:07.677Z,436.6154
2023-05-14T01:27:09.515Z,462.3077
2023-05-14T01:28:11.361Z,440.3846
2023-05-14T01:29:13.181Z,471.0769
2023-05-14T01:30:15.037Z,470.6923
2023-05-14T01:31:16.895Z,471.0000
2023-05-14T01:32:18.777Z,474.3077
2023-05-14T01:33:20.565Z,479.7692
2023-05-14T01:34:22.391Z,477.1538
2023-05-14T01:35:24.247Z,476.7692
2023-05-14T01:36:26.097Z,477.3077
2023-05-14T01:37:27.934Z,477.1538
2023-05-14T01:38:29.779Z,478.2308
2023-05-14T01:39:31.656Z,476.1538
2023-05-14T01:40:33.487Z,476.3846
2023-05-14T01:41:35.281Z,467.8462
2023-05-14T01:42:37.122Z,460.1538
2023-05-14T01:43:38.986Z,462.6923
2023-05-14T01:44:40.824Z,437.5385
2023-05-14T01:45:42.732Z,468.4615
2023-05-14T01:46:44.496Z,472.6154
2023-05-14T01:47:46.372Z,468.2308
2023-05-14T01:48:48.176Z,470.4615
2023-05-14T01:49:50.027Z,476.0000
2023-05-14T01:50:51.867Z,474.2308
2023-05-14T01:51:53.719Z,476.0769
2023-05-14T01:52:55.546Z,478.3846
2023-05-14T01:53:57.400Z,476.8462
2023-05-14T01:54:59.224Z,475.3077
2023-05-14T01:56:01.053Z,475.1538
2023-05-14T01:57:02.939Z,473.4615
2023-05-14T01:58:04.738Z,471.0000
2023-05-14T01:59:06.574Z,472.7692
2023-05-14T02:00:08.419Z,459.4615
2023-05-14T02:01:10.289Z,469.5385
2023-05-14T02:02:13.048Z,438.9231
2023-05-14T02:03:14.003Z,467.0769
2023-05-14T02:04:15.855Z,461.8462
2023-05-14T02:05:25.162Z,468.5385
2023-05-14T02:06:19.437Z,470.9167
2023-05-14T02:07:21.288Z,471.3846
2023-05-14T02:08:23.147Z,472.9231
2023-05-14T02:09:24.987Z,473.6923
2023-05-14T02:10:34.379Z,475.2308
2023-05-14T02:11:28.681Z,474.0000
2023-05-14T02:12:30.490Z,473.6923
2023-05-14T02:13:32.336Z,477.4615
2023-05-14T02:14:34.192Z,477.2308
2023-05-14T02:15:36.076Z,478.2308
2023-05-14T02:16:37.844Z,468.2308
2023-05-14T02:17:39.733Z,467.3077
2023-05-14T02:18:41.592Z,440.6154
2023-05-14T02:19:43.363Z,463.7692
2023-05-14T02:20:45.196Z,444.7692
2023-05-14T02:21:47.050Z,460.7692
2023-05-14T02:22:48.889Z,470.3077
2023-05-14T02:23:50.730Z,469.1538
2023-05-14T02:24:52.575Z,472.6923
2023-05-14T02:25:54.415Z,473.3077
2023-05-14T02:26:56.234Z,473.5385
2023-05-14T02:27:58.084Z,476.5385
2023-05-14T02:28:59.926Z,476.5385
2023-05-14T02:30:01.795Z,475.9231
2023-05-14T02:31:03.652Z,475.5385
2023-05-14T02:32:05.510Z,474.4615
2023-05-14T02:33:07.418Z,474.1538
2023-05-14T02:34:09.117Z,472.5385
2023-05-14T02:35:10.962Z,465.6154
2023-05-14T02:36:12.802Z,451.6154
2023-05-14T02:37:14.628Z,455.5385
2023-05-14T02:38:16.491Z,439.6154
2023-05-14T02:39:18.334Z,464.5385
2023-05-14T02:40:20.158Z,458.0769
2023-05-14T02:41:21.979Z,460.3846
2023-05-14T02:42:23.826Z,469.1538
2023-05-14T02:43:25.663Z,472.1538
2023-05-14T02:44:27.520Z,474.8462
2023-05-14T02:45:29.337Z,477.7692
2023-05-14T02:46:31.295Z,475.0769
2023-05-14T02:47:33.142Z,473.6923
2023-05-14T02:48:34.921Z,474.2308
2023-05-14T02:49:36.767Z,473.9231
2023-05-14T02:50:38.607Z,474.7692
2023-05-14T02:51:40.430Z,473.3846
2023-05-14T02:52:42.271Z,451.2308
2023-05-14T02:53:44.120Z,444.6154
2023-05-14T02:54:45.951Z,462.0769
2023-05-14T02:55:47.801Z,457.5385
2023-05-14T02:56:49.636Z,450.6154
2023-05-14T02:57:51.454Z,471.6923
2023-05-14T02:58:53.303Z,473.3846
2023-05-14T02:59:55.136Z,470.5385
2023-05-14T03:00:57.003Z,471.4615
2023-05-14T03:01:58.873Z,472.4615
2023-05-14T03:03:00.709Z,473.6923
2023-05-14T03:04:02.472Z,475.3846
2023-05-14T03:05:04.324Z,476.1538
2023-05-14T03:06:06.153Z,476.2308
2023-05-14T03:07:07.990Z,475.2308
2023-05-14T03:08:09.851Z,475.6154
2023-05-14T03:09:11.657Z,473.8462
2023-05-14T03:10:13.508Z,473.0000
2023-05-14T03:11:15.345Z,454.6154
2023-05-14T03:12:17.174Z,449.5385
2023-05-14T03:13:19.015Z,452.6923
2023-05-14T03:14:20.872Z,450.6154
2023-05-14T03:15:22.681Z,466.5385
2023-05-14T03:16:24.546Z,471.0000
2023-05-14T03:17:26.366Z,472.2308
2023-05-14T03:18:28.228Z,472.6923
2023-05-14T03:19:30.044Z,472.6923
2023-05-14T03:20:31.876Z,473.6923
2023-05-14T03:21:33.688Z,474.4615
2023-05-14T03:22:35.528Z,477.6923
2023-05-14T03:23:37.397Z,477.0000
2023-05-14T03:24:39.215Z,476.2308
2023-05-14T03:25:41.056Z,473.2308
2023-05-14T03:26:42.938Z,475.4615
2023-05-14T03:27:44.724Z,475.5385
2023-05-14T03:28:46.552Z,462.0769
2023-05-14T03:29:48.378Z,438.6154
2023-05-14T03:30:50.245Z,456.3846
2023-05-14T03:31:52.068Z,449.3077
2023-05-14T03:32:53.961Z,464.6154
2023-05-14T03:33:55.724Z,469.3077
2023-05-14T03:34:57.559Z,471.2308
2023-05-14T03:35:59.402Z,473.3846
2023-05-14T03:37:01.247Z,475.7692
2023-05-14T03:38:03.080Z,478.3846
2023-05-14T03:39:04.957Z,479.0000
2023-05-14T03:40:06.750Z,477.3077
2023-05-14T03:41:08.579Z,473.4615
2023-05-14T03:42:10.409Z,473.0000
2023-05-14T03:43:12.271Z,471.3077
2023-05-14T03:44:14.107Z,471.3846
2023-05-14T03:45:15.979Z,474.0769
2023-05-14T03:46:17.771Z,470.6923
2023-05-14T03:47:19.607Z,454.1538
2023-05-14T03:48:21.536Z,463.1538
2023-05-14T03:49:23.294Z,458.4615
2023-05-14T03:50:25.354Z,460.0769
2023-05-14T03:51:26.977Z,458.2308
2023-05-14T03:52:28.799Z,469.0000
2023-05-14T03:53:30.646Z,471.1538
2023-05-14T03:54:32.488Z,474.6923
2023-05-14T03:55:34.321Z,475.0000
2023-05-14T03:56:36.172Z,469.6923
2023-05-14T03:57:38.040Z,473.4615
2023-05-14T03:58:39.844Z,476.3846
2023-05-14T03:59:41.701Z,474.7692
2023-05-14T04:00:43.546Z,472.3846
2023-05-14T04:01:45.371Z,472.5385
2023-05-14T04:02:47.311Z,474.2308
2023-05-14T04:03:49.211Z,462.5385
2023-05-14T04:04:50.935Z,464.2308
2023-05-14T04:05:52.734Z,469.3846
2023-05-14T04:06:54.578Z,440.4615
2023-05-14T04:07:56.407Z,462.3077
2023-05-14T04:08:58.251Z,477.3077
2023-05-14T04:10:01.793Z,477.8462
2023-05-14T04:11:01.942Z,478.6154
2023-05-14T04:12:03.788Z,479.0769
2023-05-14T04:13:05.622Z,480.3077
2023-05-14T04:14:07.460Z,479.9231
2023-05-14T04:15:09.288Z,478.0000
2023-05-14T04:16:11.180Z,480.0000
2023-05-14T04:17:12.977Z,480.6154
2023-05-14T04:18:14.849Z,481.3846
2023-05-14T04:19:16.749Z,482.3846
2023-05-14T04:20:18.482Z,482.4615
2023-05-14T04:21:20.314Z,470.3077
2023-05-14T04:22:22.175Z,468.2308
2023-05-14T04:23:23.979Z,454.1538
2023-05-14T04:24:25.810Z,449.5385
2023-05-14T04:25:27.648Z,463.3077
2023-05-14T04:26:29.487Z,467.7692
2023-05-14T04:27:31.341Z,472.9231
2023-05-14T04:28:33.201Z,477.8462
2023-05-14T04:29:35.008Z,478.2308
2023-05-14T04:30:36.846Z,478.0000
2023-05-14T04:31:38.708Z,477.1538
2023-05-14T04:32:40.577Z,477.6923
2023-05-14T04:33:42.364Z,477.8462
2023-05-14T04:34:44.221Z,478.6923
2023-05-14T04:35:46.038Z,480.0769
2023-05-14T04:36:47.872Z,484.0000
2023-05-14T04:37:49.717Z,486.3846
2023-05-14T04:38:51.568Z,472.0769
2023-05-14T04:39:53.392Z,465.5385
2023-05-14T04:40:55.252Z,466.1538
2023-05-14T04:41:57.067Z,439.6154
2023-05-14T04:42:58.903Z,470.0000
2023-05-14T04:44:00.729Z,468.0769
2023-05-14T04:45:02.595Z,470.0769
2023-05-14T04:46:04.453Z,469.4615
2023-05-14T04:47:06.267Z,473.0000
2023-05-14T04:48:08.136Z,476.2308
2023-05-14T04:49:09.924Z,478.3846
2023-05-14T04:50:11.767Z,478.2308
2023-05-14T04:51:13.593Z,478.6154
2023-05-14T04:52:15.449Z,477.3846
2023-05-14T04:53:17.306Z,477.3846
2023-05-14T04:54:19.156Z,478.2308
2023-05-14T04:55:20.966Z,476.6154
2023-05-14T04:56:22.807Z,477.8462
2023-05-14T04:57:24.629Z,460.6154
2023-05-14T04:58:26.476Z,452.4615
2023-05-14T04:59:28.346Z,454.9231
2023-05-14T05:00:30.170Z,454.9231
2023-05-14T05:01:32.028Z,469.9231
2023-05-14T05:02:33.877Z,465.2308
2023-05-14T05:03:35.690Z,469.3846
2023-05-14T05:04:37.496Z,473.6154
2023-05-14T05:05:39.373Z,474.3077
2023-05-14T05:06:41.214Z,474.6923
2023-05-14T05:07:43.016Z,474.9231
2023-05-14T05:08:44.852Z,476.9231
2023-05-14T05:09:46.687Z,475.8462
2023-05-14T05:10:48.553Z,476.5385
2023-05-14T05:11:50.406Z,477.0000
2023-05-14T05:12:52.226Z,475.3846
2023-05-14T05:13:54.045Z,473.3077
2023-05-14T05:14:55.881Z,470.9231
2023-05-14T05:15:57.755Z,450.5385
2023-05-14T05:16:59.569Z,466.0000
2023-05-14T05:18:01.441Z,438.6154
2023-05-14T05:19:03.283Z,458.7692
2023-05-14T05:20:05.070Z,459.2308
2023-05-14T05:21:06.920Z,462.6923
2023-05-14T05:22:08.754Z,465.6154
2023-05-14T05:23:10.575Z,469.1538
2023-05-14T05:24:12.441Z,471.4615
2023-05-14T05:25:14.251Z,471.2308
2023-05-14T05:26:16.107Z,472.1538
2023-05-14T05:27:17.934Z,471.8462
2023-05-14T05:28:19.770Z,471.3077
2023-05-14T05:29:21.594Z,471.2308
2023-05-14T05:30:23.680Z,472.6154
2023-05-14T05:31:25.417Z,473.3077
2023-05-14T05:32:27.113Z,473.8462
2023-05-14T05:33:28.958Z,457.0769
2023-05-14T05:34:30.783Z,467.9231
2023-05-14T05:35:32.625Z,436.0000
2023-05-14T05:36:34.473Z,469.0000
2023-05-14T05:37:36.304Z,462.7692
2023-05-14T05:38:38.142Z,468.7692
2023-05-14T05:39:39.986Z,473.3846
2023-05-14T05:40:41.812Z,475.6154
2023-05-14T05:41:43.653Z,476.3846
2023-05-14T05:42:45.518Z,475.6923
2023-05-14T05:43:47.340Z,475.2308
2023-05-14T05:44:49.176Z,476.6923
2023-05-14T05:45:51.046Z,475.0000
2023-05-14T05:46:52.916Z,471.6923
2023-05-14T05:47:54.719Z,473.0000
2023-05-14T05:48:56.547Z,472.6923
2023-05-14T05:49:58.368Z,473.0769
2023-05-14T05:51:00.212Z,445.3077
2023-05-14T05:52:02.033Z,448.6154
2023-05-14T05:53:03.899Z,440.0769
2023-05-14T05:54:05.735Z,456.1538
2023-05-14T05:55:07.596Z,471.7692
2023-05-14T05:56:09.413Z,474.0000
2023-05-14T05:57:11.260Z,473.8462
2023-05-14T05:58:13.101Z,474.6154
2023-05-14T05:59:14.937Z,475.0769
2023-05-14T06:00:16.761Z,475.3077
2023-05-14T06:01:18.647Z,474.0000
2023-05-14T06:02:20.491Z,472.3846
2023-05-14T06:03:22.376Z,470.7692
2023-05-14T06:04:24.141Z,471.9231
2023-05-14T06:05:25.989Z,472.0000
2023-05-14T06:06:27.805Z,471.1538
2023-05-14T06:07:29.697Z,468.6154
2023-05-14T06:08:31.495Z,452.8462
2023-05-14T06:09:33.342Z,456.9231
2023-05-14T06:10:35.184Z,430.0000
2023-05-14T06:11:37.033Z,462.6923
2023-05-14T06:12:38.866Z,458.7692
2023-05-14T06:13:40.704Z,465.2308
2023-05-14T06:14:42.550Z,471.5385
2023-05-14T06:15:44.369Z,470.2308
2023-05-14T06:16:46.216Z,468.9231
2023-05-14T06:17:48.090Z,471.4615
2023-05-14T06:18:49.945Z,473.0000
2023-05-14T06:19:51.752Z,472.5385
2023-05-14T06:20:53.578Z,472.0769
2023-05-14T06:21:55.427Z,472.0769
2023-05-14T06:22:57.265Z,472.1538
2023-05-14T06:23:59.111Z,471.8462
2023-05-14T06:25:00.965Z,472.5385
2023-05-14T06:26:02.813Z,458.0000
2023-05-14T06:27:04.622Z,451.1538
2023-05-14T06:28:06.470Z,445.3846
2023-05-14T06:29:08.321Z,456.6154
2023-05-14T06:30:10.160Z,464.3846
2023-05-14T06:31:11.993Z,468.2308
2023-05-14T06:32:13.999Z,474.0000
2023-05-14T06:33:15.661Z,473.4615
2023-05-14T06:34:17.519Z,473.1538
2023-05-14T06:35:19.354Z,473.1538
2023-05-14T06:36:21.192Z,473.0769
2023-05-14T06:37:23.012Z,474.9231
2023-05-14T06:38:24.864Z,475.1538
2023-05-14T06:39:26.690Z,474.7692
2023-05-14T06:40:28.560Z,474.3846
2023-05-14T06:41:30.391Z,475.3846
2023-05-14T06:42:32.204Z,475.0000
2023-05-14T06:43:34.043Z,463.0769
2023-05-14T06:44:35.899Z,465.8462
2023-05-14T06:45:37.742Z,447.0000
2023-05-14T06:46:39.567Z,464.6154
2023-05-14T06:47:41.491Z,458.6923
2023-05-14T06:48:43.283Z,474.3846
2023-05-14T06:49:45.160Z,473.8462
2023-05-14T06:50:47.029Z,474.4615
2023-05-14T06:51:48.830Z,477.2308
2023-05-14T06:52:50.677Z,480.0769
2023-05-14T06:53:52.527Z,479.2308
2023-05-14T06:54:54.364Z,479.6154
2023-05-14T06:55:56.210Z,478.2308
2023-05-14T06:56:58.060Z,480.6154
2023-05-14T06:57:59.882Z,474.0769
2023-05-14T06:59:01.729Z,474.1538
2023-05-14T07:00:03.905Z,472.2308
2023-05-14T07:01:05.438Z,461.0000
2023-05-14T07:02:07.269Z,467.1538
2023-05-14T07:03:09.214Z,464.2308
2023-05-14T07:04:11.009Z,447.3077
2023-05-14T07:05:12.778Z,471.6154
2023-05-14T07:06:14.612Z,469.4615
2023-05-14T07:07:16.460Z,473.4615
2023-05-14T07:08:18.312Z,474.3846
2023-05-14T07:09:20.175Z,478.4615
2023-05-14T07:10:22.292Z,479.0769
2023-05-14T07:11:23.816Z,478.8462
2023-05-14T07:12:25.654Z,479.0769
2023-05-14T07:13:28.631Z,478.9231
2023-05-14T07:14:29.346Z,477.3077
2023-05-14T07:15:31.215Z,477.6923
2023-05-14T07:16:33.039Z,480.2308
2023-05-14T07:17:34.883Z,476.6923
2023-05-14T07:18:36.741Z,467.7692
2023-05-14T07:19:38.545Z,473.5385
2023-05-14T07:20:40.379Z,434.9231
2023-05-14T07:21:42.240Z,466.5385
2023-05-14T07:22:44.053Z,454.6923
2023-05-14T07:23:45.917Z,468.4615
2023-05-14T07:24:47.745Z,468.7692
2023-05-14T07:25:49.582Z,471.0769
2023-05-14T07:26:51.429Z,472.7692
2023-05-14T07:27:53.268Z,474.3077
2023-05-14T07:28:55.111Z,475.3077
2023-05-14T07:29:56.927Z,477.6154
2023-05-14T07:30:58.805Z,481.0000
2023-05-14T07:32:00.624Z,479.8462
2023-05-14T07:33:02.497Z,475.5385
2023-05-14T07:34:04.426Z,475.1538
2023-05-14T07:35:06.148Z,477.0769
2023-05-14T07:36:07.965Z,462.9231
2023-05-14T07:37:09.804Z,464.1538
2023-05-14T07:38:11.661Z,450.6154
2023-05-14T07:39:13.502Z,467.8462
2023-05-14T07:40:15.374Z,457.4615
2023-05-14T07:41:17.182Z,470.6154
2023-05-14T07:42:31.734Z,473.1538
2023-05-14T07:43:21.858Z,475.3077
2023-05-14T07:44:22.682Z,476.4615
2023-05-14T07:45:24.522Z,477.2308
2023-05-14T07:46:26.398Z,479.3846
2023-05-14T07:47:28.317Z,479.1538
2023-05-14T07:48:30.081Z,478.0000
2023-05-14T07:49:31.880Z,478.2308
2023-05-14T07:50:33.745Z,477.2308
2023-05-14T07:51:35.569Z,478.5385
2023-05-14T07:52:37.438Z,477.0769
2023-05-14T07:53:39.264Z,474.5385
2023-05-14T07:54:41.086Z,448.9231
2023-05-14T07:55:42.939Z,435.6154
2023-05-14T07:56:44.779Z,455.3846
2023-05-14T07:57:46.625Z,461.6923
2023-05-14T07:58:48.500Z,465.9231
2023-05-14T07:59:50.315Z,468.0000
2023-05-14T08:00:52.131Z,467.8462
2023-05-14T08:01:53.990Z,468.3846
2023-05-14T08:02:56.037Z,470.6923
2023-05-14T08:03:57.699Z,475.0769
2023-05-14T08:04:59.526Z,474.6923
2023-05-14T08:06:01.334Z,473.0769
2023-05-14T08:07:03.171Z,471.6154
2023-05-14T08:08:05.007Z,475.8462
2023-05-14T08:09:06.863Z,475.7692
2023-05-14T08:10:08.718Z,475.9231
2023-05-14T08:11:10.630Z,470.3846
2023-05-14T08:12:12.383Z,457.7692
2023-05-14T08:13:14.216Z,460.3077
2023-05-14T08:14:16.069Z,433.6923
2023-05-14T08:15:17.905Z,444.4615
2023-05-14T08:16:19.799Z,457.2308
2023-05-14T08:17:21.633Z,456.7692
2023-05-14T08:18:23.415Z,463.1538
2023-05-14T08:19:25.264Z,465.6154
2023-05-14T08:20:27.528Z,466.3077
2023-05-14T08:21:28.924Z,468.5385
2023-05-14T08:22:30.765Z,469.4615
2023-05-14T08:23:32.665Z,469.6154
2023-05-14T08:24:34.460Z,469.5385
2023-05-14T08:25:36.306Z,469.3077
2023-05-14T08:26:38.135Z,472.3077
2023-05-14T08:27:39.969Z,471.0000
2023-05-14T08:28:41.816Z,464.6923
2023-05-14T08:29:43.712Z,463.0769
2023-05-14T08:30:45.524Z,437.0769
2023-05-14T08:31:47.322Z,468.7692
2023-05-14T08:32:49.208Z,438.0000
2023-05-14T08:33:51.029Z,463.8462
2023-05-14T08:34:52.854Z,458.1538
2023-05-14T08:35:54.712Z,467.3077
2023-05-14T08:36:56.521Z,467.3846
2023-05-14T08:37:58.383Z,468.0769
2023-05-14T08:39:00.220Z,470.0000
2023-05-14T08:40:02.062Z,471.5385
2023-05-14T08:41:03.916Z,472.7692
2023-05-14T08:42:05.751Z,470.4615
2023-05-14T08:43:07.564Z,470.8462
2023-05-14T08:44:09.419Z,470.0000
2023-05-14T08:45:11.263Z,470.0769
2023-05-14T08:46:13.108Z,467.4615
2023-05-14T08:47:14.934Z,462.6923
2023-05-14T08:48:16.929Z,446.9231
2023-05-14T08:49:18.634Z,433.0769
2023-05-14T08:50:21.924Z,464.0769
2023-05-14T08:51:22.328Z,446.4615
2023-05-14T08:52:24.145Z,463.2308
2023-05-14T08:53:25.993Z,460.2308
2023-05-14T08:54:27.854Z,463.3846
2023-05-14T08:55:29.696Z,465.0000
2023-05-14T08:56:31.531Z,462.3077
2023-05-14T08:57:33.398Z,462.0000
2023-05-14T08:58:35.197Z,465.6154
2023-05-14T08:59:37.058Z,467.7692
2023-05-14T09:00:38.911Z,467.9231
2023-05-14T09:01:40.770Z,468.6154
2023-05-14T09:02:42.643Z,466.1538
2023-05-14T09:03:44.466Z,463.2308
2023-05-14T09:04:46.252Z,457.6154
2023-05-14T09:05:48.104Z,458.4615
2023-05-14T09:06:49.966Z,424.5385
2023-05-14T09:07:51.772Z,459.2308
2023-05-14T09:08:53.622Z,440.6923
2023-05-14T09:09:55.508Z,459.3077
2023-05-14T09:10:57.302Z,461.2308
2023-05-14T09:11:59.133Z,467.6154
2023-05-14T09:13:01.003Z,465.7692
2023-05-14T09:14:02.847Z,468.5385
2023-05-14T09:15:04.655Z,467.5385
2023-05-14T09:16:06.497Z,468.5385
2023-05-14T09:17:08.347Z,470.2308
2023-05-14T09:18:10.250Z,469.0000
2023-05-14T09:19:12.134Z,467.3846
2023-05-14T09:20:13.877Z,467.5385
2023-05-14T09:21:15.715Z,466.6923
2023-05-14T09:22:17.562Z,465.6154
2023-05-14T09:23:19.379Z,449.5385
2023-05-14T09:24:21.224Z,460.5385
2023-05-14T09:25:23.098Z,439.6154
2023-05-14T09:26:24.904Z,452.6923
2023-05-14T09:27:26.746Z,448.9231
2023-05-14T09:28:28.596Z,456.9231
2023-05-14T09:29:30.431Z,459.3077
2023-05-14T09:30:32.281Z,461.7692
2023-05-14T09:31:34.200Z,461.4615
2023-05-14T09:32:36.014Z,463.2308
2023-05-14T09:33:37.791Z,464.2308
2023-05-14T09:34:39.632Z,463.7692
2023-05-14T09:35:41.474Z,463.9231
2023-05-14T09:36:43.309Z,465.0769
2023-05-14T09:37:45.138Z,462.8462
2023-05-14T09:38:46.988Z,463.7692
2023-05-14T09:39:48.821Z,460.8462
2023-05-14T09:40:50.663Z,444.6923
2023-05-14T09:41:52.484Z,444.3077
2023-05-14T09:42:54.352Z,442.6154
2023-05-14T09:43:56.160Z,437.3077
2023-05-14T09:44:58.008Z,447.0769
2023-05-14T09:45:59.856Z,452.6154
2023-05-14T09:47:01.692Z,459.4615
2023-05-14T09:48:03.642Z,461.6923
2023-05-14T09:49:05.392Z,461.6923
2023-05-14T09:50:07.208Z,459.6154
2023-05-14T09:51:09.041Z,459.0769
2023-05-14T09:52:10.860Z,458.4615
2023-05-14T09:53:12.692Z,458.6923
2023-05-14T09:54:14.532Z,459.9231
2023-05-14T09:55:16.412Z,459.8462
2023-05-14T09:56:18.222Z,459.9231
2023-05-14T09:57:20.056Z,461.4615
2023-05-14T09:58:21.883Z,445.1538
2023-05-14T09:59:23.715Z,454.0000
2023-05-14T10:00:25.799Z,439.3077
2023-05-14T10:01:27.444Z,433.1538
2023-05-14T10:02:29.272Z,450.8462
2023-05-14T10:03:31.061Z,448.9231
2023-05-14T10:04:33.015Z,450.4615
2023-05-14T10:05:34.750Z,454.8462
2023-05-14T10:06:36.572Z,458.0000
2023-05-14T10:07:38.460Z,459.2308
2023-05-14T10:08:40.353Z,461.7692
2023-05-14T10:09:42.102Z,461.6923
2023-05-14T10:10:43.938Z,460.9231
2023-05-14T10:11:45.774Z,461.0000
2023-05-14T10:12:47.600Z,460.1538
2023-05-14T10:13:49.470Z,462.3846
2023-05-14T10:14:51.291Z,460.3846
2023-05-14T10:15:53.124Z,451.5385
2023-05-14T10:16:54.980Z,449.1538
2023-05-14T10:17:56.812Z,441.9231
2023-05-14T10:18:58.670Z,433.0000
2023-05-14T10:20:00.492Z,447.0000
2023-05-14T10:21:02.308Z,447.7692
2023-05-14T10:22:04.244Z,451.6154
2023-05-14T10:23:05.960Z,455.0000
2023-05-14T10:24:07.809Z,458.9231
2023-05-14T10:25:09.653Z,463.3077
2023-05-14T10:26:11.494Z,464.9231
2023-05-14T10:27:13.317Z,466.6923
2023-05-14T10:28:15.146Z,466.0769
2023-05-14T10:29:16.968Z,465.0000
2023-05-14T10:30:18.940Z,464.3077
2023-05-14T10:31:20.710Z,463.8462
2023-05-14T10:32:22.482Z,464.0769
2023-05-14T10:33:24.324Z,463.8462
2023-05-14T10:34:26.167Z,450.3846
2023-05-14T10:35:28.014Z,438.2308
2023-05-14T10:36:29.845Z,448.3077
2023-05-14T10:37:31.687Z,428.3846
2023-05-14T10:38:33.505Z,453.2308
2023-05-14T10:39:35.346Z,449.3846
2023-05-14T10:40:37.182Z,455.3077
2023-05-14T10:41:39.020Z,457.3077
2023-05-14T10:42:40.891Z,456.7692
2023-05-14T10:43:42.734Z,457.8462
2023-05-14T10:44:44.519Z,459.2308
2023-05-14T10:45:46.372Z,456.9231
2023-05-14T10:46:48.275Z,457.5385
2023-05-14T10:47:50.055Z,458.6923
2023-05-14T10:48:51.870Z,460.5385
2023-05-14T10:49:53.740Z,462.0769
2023-05-14T10:50:55.588Z,457.5385
2023-05-14T10:51:57.397Z,441.5385
2023-05-14T10:52:59.311Z,448.3846
2023-05-14T10:54:01.129Z,419.6154
2023-05-14T10:55:03.845Z,449.9231
2023-05-14T10:56:04.845Z,439.3846
2023-05-14T10:57:06.651Z,456.0000
2023-05-14T10:58:08.487Z,460.3846
2023-05-14T10:59:10.311Z,462.6923
2023-05-14T11:00:12.144Z,460.6923
2023-05-14T11:01:14.001Z,461.2308
2023-05-14T11:02:16.050Z,460.7692
2023-05-14T11:03:17.698Z,459.3846
2023-05-14T11:04:19.637Z,461.6154
2023-05-14T11:05:21.335Z,462.0000
2023-05-14T11:06:23.181Z,459.2308
2023-05-14T11:07:25.023Z,458.0769
2023-05-14T11:08:28.064Z,459.0769
2023-05-14T11:09:28.692Z,452.9231
2023-05-14T11:10:30.516Z,439.9231
2023-05-14T11:11:32.362Z,428.8462
2023-05-14T11:12:34.204Z,448.1538
2023-05-14T11:13:36.033Z,433.5385
2023-05-14T11:14:37.891Z,448.9231
2023-05-14T11:15:39.711Z,450.2308
2023-05-14T11:16:41.563Z,452.4615
2023-05-14T11:17:43.464Z,456.6923
2023-05-14T11:18:45.249Z,456.5385
2023-05-14T11:19:48.343Z,454.7692
2023-05-14T11:20:48.924Z,456.6923
2023-05-14T11:21:50.781Z,456.9231
2023-05-14T11:22:52.571Z,456.8462
2023-05-14T11:23:54.397Z,457.4615
2023-05-14T11:24:56.230Z,456.6923
2023-05-14T11:25:58.112Z,456.8462
2023-05-14T11:26:59.928Z,448.0000
2023-05-14T11:28:01.761Z,441.4615
2023-05-14T11:29:03.606Z,420.0769
2023-05-14T11:30:05.423Z,430.4615
2023-05-14T11:31:07.265Z,445.0769
2023-05-14T11:32:09.210Z,434.7692
2023-05-14T11:33:11.011Z,447.5385
2023-05-14T11:34:12.818Z,452.8462
2023-05-14T11:35:14.630Z,454.4615
2023-05-14T11:36:16.453Z,456.6923
2023-05-14T11:37:18.287Z,458.7692
2023-05-14T11:38:20.129Z,458.9231
2023-05-14T11:39:21.969Z,461.7692
2023-05-14T11:40:23.931Z,460.3846
2023-05-14T11:41:25.630Z,459.4615
2023-05-14T11:42:27.469Z,459.3077
2023-05-14T11:43:29.477Z,457.4615
2023-05-14T11:44:31.172Z,449.7692
2023-05-14T11:45:33.006Z,439.4615
2023-05-14T11:46:34.965Z,443.4615
2023-05-14T11:47:36.730Z,417.2308
2023-05-14T11:48:38.519Z,442.0769
2023-05-14T11:49:40.347Z,432.1538
2023-05-14T11:50:42.181Z,444.1538
2023-05-14T11:51:44.007Z,444.7692
2023-05-14T11:52:45.883Z,449.6154
2023-05-14T11:53:47.693Z,453.8462
2023-05-14T11:54:49.546Z,455.5385
2023-05-14T11:55:51.371Z,457.5385
2023-05-14T11:56:53.195Z,456.2308
2023-05-14T11:57:55.051Z,455.6923
2023-05-14T11:58:56.940Z,454.7692
2023-05-14T11:59:58.732Z,454.1538
2023-05-14T12:01:00.556Z,454.3077
2023-05-14T12:02:02.452Z,450.3846
2023-05-14T12:03:04.384Z,444.2308
2023-05-14T12:04:06.178Z,437.3846
2023-05-14T12:05:07.942Z,416.3077
2023-05-14T12:06:09.745Z,442.2308